createdAt,value
2019-03-04T00:03:22.470Z,3.93
2019-03-04T00:07:29.367Z,3.90
2019-03-04T00:11:36.388Z,4.67
2019-03-04T00:15:43.616Z,4.03
2019-03-04T00:19:50.509Z,3.87
2019-03-04T00:23:57.367Z,3.60
2019-03-04T00:28:04.319Z,3.80
2019-03-04T00:32:11.257Z,4.17
2019-03-04T00:36:18.109Z,3.83
2019-03-04T00:40:24.974Z,3.80
2019-03-04T00:44:31.861Z,3.43
2019-03-04T00:48:38.964Z,3.40
2019-03-04T00:52:45.820Z,3.50
2019-03-04T00:56:52.625Z,3.80
2019-03-04T01:00:59.489Z,3.93
2019-03-04T01:05:06.894Z,3.60
2019-03-04T01:09:15.622Z,3.83
2019-03-04T01:13:24.401Z,3.67
2019-03-04T01:17:31.276Z,3.30
2019-03-04T01:21:38.141Z,3.63
2019-03-04T01:25:45.001Z,3.00
2019-03-04T01:29:51.873Z,3.17
2019-03-04T01:33:58.702Z,3.40
2019-03-04T01:38:05.696Z,3.07
2019-03-04T01:42:12.714Z,3.00
2019-03-04T01:46:19.665Z,3.23
2019-03-04T01:50:26.499Z,2.93
2019-03-04T01:54:33.344Z,3.33
2019-03-04T01:58:40.151Z,2.97
2019-03-04T02:02:47.554Z,3.00
2019-03-04T02:06:54.403Z,3.20
2019-03-04T02:11:01.224Z,3.13
2019-03-04T02:15:09.663Z,2.57
2019-03-04T02:19:16.531Z,3.20
2019-03-04T02:23:23.918Z,2.83
2019-03-04T02:27:30.733Z,3.10
2019-03-04T02:31:37.547Z,2.83
2019-03-04T02:35:44.604Z,2.60
2019-03-04T02:39:51.445Z,3.27
2019-03-04T02:43:58.322Z,2.77
2019-03-04T02:48:05.140Z,2.60
2019-03-04T02:52:11.943Z,2.50
2019-03-04T02:56:18.862Z,2.30
2019-03-04T03:00:25.806Z,2.40
2019-03-04T03:04:32.697Z,2.87
2019-03-04T03:08:39.544Z,2.90
2019-03-04T03:12:47.427Z,2.50
2019-03-04T03:16:54.403Z,2.90
2019-03-04T03:21:01.262Z,2.40
2019-03-04T03:25:08.767Z,2.80
2019-03-04T03:29:15.686Z,3.30
2019-03-04T03:33:22.509Z,2.40
2019-03-04T03:37:29.361Z,2.20
2019-03-04T03:41:37.994Z,2.57
2019-03-04T03:45:44.866Z,2.63
2019-03-04T03:49:52.755Z,2.63
2019-03-04T03:53:59.548Z,2.40
2019-03-04T03:58:06.377Z,2.60
2019-03-04T04:02:13.265Z,2.87
2019-03-04T04:06:20.157Z,2.80
2019-03-04T04:10:27.087Z,3.57
2019-03-04T04:14:33.869Z,2.80
2019-03-04T04:18:40.743Z,2.57
2019-03-04T04:22:47.652Z,2.40
2019-03-04T04:26:54.496Z,2.80
2019-03-04T04:31:01.329Z,3.03
2019-03-04T04:35:08.518Z,2.70
2019-03-04T04:39:15.354Z,3.00
2019-03-04T04:43:22.166Z,2.50
2019-03-04T04:47:29.079Z,3.00
2019-03-04T04:51:35.899Z,2.47
2019-03-04T04:55:42.723Z,3.00
2019-03-04T04:59:49.572Z,2.97
2019-03-04T05:03:56.492Z,2.70
2019-03-04T05:08:03.351Z,2.93
2019-03-04T05:12:10.197Z,2.80
2019-03-04T05:16:17.001Z,3.10
2019-03-04T05:20:23.982Z,3.00
2019-03-04T05:24:30.968Z,2.80
2019-03-04T05:28:38.972Z,2.63
2019-03-04T05:32:45.800Z,3.13
2019-03-04T05:36:52.667Z,3.20
2019-03-04T05:40:59.532Z,2.80
2019-03-04T05:45:08.087Z,2.60
2019-03-04T05:49:25.612Z,3.00
2019-03-04T05:53:32.524Z,2.97
2019-03-04T05:57:39.559Z,3.47
2019-03-04T06:02:05.389Z,2.90
2019-03-04T06:06:12.264Z,3.00
2019-03-04T06:10:19.171Z,2.97
2019-03-04T06:14:26.490Z,2.93
2019-03-04T06:18:33.373Z,2.90
2019-03-04T06:22:40.243Z,3.10
2019-03-04T06:26:47.107Z,3.30
2019-03-04T06:30:53.963Z,2.60
2019-03-04T06:35:00.872Z,3.10
2019-03-04T06:39:09.631Z,3.10
2019-03-04T06:43:16.693Z,3.10
2019-03-04T06:47:23.973Z,2.40
2019-03-04T06:51:43.449Z,2.87
2019-03-04T06:56:07.510Z,3.43
2019-03-04T07:00:53.341Z,2.87
2019-03-04T07:05:53.164Z,2.90
2019-03-04T07:10:00.003Z,2.90
2019-03-04T07:14:07.466Z,2.53
2019-03-04T07:18:14.384Z,2.33
2019-03-04T07:22:21.240Z,2.93
2019-03-04T07:26:28.085Z,2.27
2019-03-04T07:30:34.892Z,2.87
2019-03-04T07:34:41.792Z,2.20
2019-03-04T07:38:58.480Z,2.00
2019-03-04T07:43:05.486Z,1.90
2019-03-04T07:47:12.489Z,1.80
2019-03-04T07:51:26.322Z,1.67
2019-03-04T07:55:33.237Z,1.90
2019-03-04T07:59:40.079Z,2.10
2019-03-04T08:03:52.161Z,1.90
2019-03-04T08:07:59.013Z,2.10
2019-03-04T08:13:02.222Z,1.80
2019-03-04T08:17:09.179Z,2.03
2019-03-04T08:21:17.193Z,2.07
2019-03-04T08:25:24.068Z,2.13
2019-03-04T08:29:33.494Z,1.67
2019-03-04T08:33:40.394Z,1.87
2019-03-04T08:37:47.360Z,1.63
2019-03-04T08:41:54.412Z,2.07
2019-03-04T08:46:01.662Z,1.87
2019-03-04T08:50:10.104Z,1.73
2019-03-04T08:54:18.040Z,2.27
2019-03-04T08:58:24.902Z,1.80
2019-03-04T09:02:31.792Z,1.60
2019-03-04T09:06:38.817Z,1.70
2019-03-04T09:10:45.730Z,1.40
2019-03-04T09:14:52.749Z,1.47
2019-03-04T09:18:59.822Z,1.33
2019-03-04T09:23:06.813Z,1.30
2019-03-04T09:27:13.794Z,1.33
2019-03-04T09:31:20.887Z,1.93
2019-03-04T09:35:27.988Z,1.50
2019-03-04T09:39:35.064Z,1.67
2019-03-04T09:43:42.319Z,1.73
2019-03-04T09:47:49.243Z,1.90
2019-03-04T09:51:56.663Z,1.43
2019-03-04T09:56:03.556Z,1.40
2019-03-04T10:00:38.713Z,1.50
2019-03-04T10:05:36.282Z,1.27
2019-03-04T10:10:29.969Z,1.80
2019-03-04T10:15:44.030Z,1.60
2019-03-04T10:20:36.680Z,1.80
2019-03-04T10:25:59.712Z,2.10
2019-03-04T10:31:07.292Z,2.10
2019-03-04T10:36:01.576Z,1.87
2019-03-04T10:41:08.230Z,1.40
2019-03-04T10:45:48.315Z,1.93
2019-03-04T10:49:55.204Z,1.97
2019-03-04T10:54:03.180Z,1.80
2019-03-04T10:58:10.331Z,2.03
2019-03-04T11:02:17.234Z,2.00
2019-03-04T11:06:24.312Z,1.70
2019-03-04T11:10:31.548Z,1.80
2019-03-04T11:14:38.678Z,1.90
2019-03-04T11:18:45.647Z,1.97
2019-03-04T11:22:52.621Z,2.13
2019-03-04T11:26:59.548Z,2.03
2019-03-04T11:31:06.498Z,1.73
2019-03-04T11:35:13.701Z,2.13
2019-03-04T11:39:47.782Z,1.80
2019-03-04T11:43:54.599Z,2.00
2019-03-04T11:48:01.469Z,1.73
2019-03-04T11:52:08.445Z,2.43
2019-03-04T11:56:15.316Z,1.90
2019-03-04T12:00:31.754Z,2.30
2019-03-04T12:04:40.024Z,2.07
2019-03-04T12:08:46.892Z,2.40
2019-03-04T12:12:53.754Z,2.00
2019-03-04T12:17:01.726Z,2.40
2019-03-04T12:21:09.564Z,1.73
2019-03-04T12:25:16.709Z,1.73
2019-03-04T12:29:23.540Z,1.63
2019-03-04T12:33:30.479Z,2.33
2019-03-04T12:37:37.305Z,2.27
2019-03-04T12:41:44.169Z,2.33
2019-03-04T12:45:53.220Z,2.53
2019-03-04T12:50:00.330Z,1.93
2019-03-04T12:54:10.635Z,2.20
2019-03-04T12:58:17.538Z,1.73
2019-03-04T13:02:25.570Z,2.20
2019-03-04T13:06:32.582Z,2.00
2019-03-04T13:10:39.546Z,1.80
2019-03-04T13:14:46.671Z,2.20
2019-03-04T13:18:53.732Z,2.10
2019-03-04T13:23:00.951Z,1.67
2019-03-04T13:27:08.090Z,1.70
2019-03-04T13:31:15.270Z,1.37
2019-03-04T13:35:24.871Z,1.60
2019-03-04T13:39:31.837Z,1.80
2019-03-04T13:43:38.828Z,1.27
2019-03-04T13:47:45.824Z,2.60
2019-03-04T13:51:52.780Z,1.80
2019-03-04T13:55:59.722Z,2.70
2019-03-04T14:00:11.116Z,2.40
2019-03-04T14:04:18.030Z,1.90
2019-03-04T14:08:24.846Z,1.90
2019-03-04T14:12:31.701Z,3.00
2019-03-04T14:16:38.536Z,2.30
2019-03-04T14:20:45.436Z,2.97
2019-03-04T14:24:52.572Z,2.10
2019-03-04T14:28:59.359Z,1.90
2019-03-04T14:33:06.309Z,2.03
2019-03-04T14:37:34.225Z,2.43
2019-03-04T14:41:41.215Z,2.17
2019-03-04T14:45:47.996Z,2.30
2019-03-04T14:49:55.012Z,2.07
2019-03-04T14:54:01.895Z,2.57
2019-03-04T14:58:08.699Z,2.83
2019-03-04T15:02:15.687Z,1.73
2019-03-04T15:06:22.795Z,1.57
2019-03-04T15:10:30.049Z,1.87
2019-03-04T15:14:37.011Z,2.17
2019-03-04T15:18:44.016Z,1.47
2019-03-04T15:22:51.166Z,1.30
2019-03-04T15:26:58.083Z,1.03
2019-03-04T15:31:05.126Z,1.07
2019-03-04T15:35:12.115Z,0.83
2019-03-04T15:39:22.865Z,1.13
2019-03-04T15:43:27.646Z,0.93
2019-03-04T15:47:36.607Z,1.07
2019-03-04T15:51:43.016Z,1.20
2019-03-04T15:55:49.919Z,1.57
2019-03-04T15:59:56.839Z,1.30
2019-03-04T16:04:04.096Z,1.40
2019-03-04T16:08:11.028Z,1.10
2019-03-04T16:12:20.852Z,1.30
2019-03-04T16:16:27.761Z,1.50
2019-03-04T16:20:35.701Z,1.30
2019-03-04T16:24:42.618Z,1.63
2019-03-04T16:28:49.640Z,1.80
2019-03-04T16:32:56.614Z,1.73
2019-03-04T16:37:08.217Z,1.50
2019-03-04T16:41:15.137Z,1.90
2019-03-04T16:45:22.001Z,1.77
2019-03-04T16:49:28.894Z,2.10
2019-03-04T16:53:35.741Z,1.60
2019-03-04T16:57:43.829Z,2.20
2019-03-04T17:01:50.881Z,1.83
2019-03-04T17:05:57.793Z,1.93
2019-03-04T17:10:06.248Z,2.10
2019-03-04T17:14:13.245Z,2.00
2019-03-04T17:18:21.129Z,2.23
2019-03-04T17:22:30.471Z,2.53
2019-03-04T17:26:37.081Z,4.03
2019-03-04T17:30:43.918Z,2.27
2019-03-04T17:34:50.979Z,2.67
2019-03-04T17:38:57.986Z,2.10
2019-03-04T17:43:05.026Z,2.53
2019-03-04T17:47:13.157Z,2.60
2019-03-04T17:51:20.204Z,2.37
2019-03-04T17:55:27.187Z,2.43
2019-03-04T17:59:34.105Z,2.63
2019-03-04T18:03:40.963Z,2.93
2019-03-04T18:07:48.054Z,3.00
2019-03-04T18:11:54.945Z,2.77
2019-03-04T18:16:01.797Z,2.70
2019-03-04T18:20:10.817Z,2.43
2019-03-04T18:24:18.997Z,2.23
2019-03-04T18:29:18.273Z,2.53
2019-03-04T18:34:19.614Z,3.07
2019-03-04T18:39:27.366Z,2.60
2019-03-04T18:43:59.329Z,2.50
2019-03-04T18:48:57.348Z,2.10
2019-03-04T18:53:07.039Z,2.73
2019-03-04T18:57:14.178Z,2.53
2019-03-04T19:01:21.362Z,2.27
2019-03-04T19:05:28.470Z,2.73
2019-03-04T19:09:35.794Z,2.47
2019-03-04T19:13:45.212Z,2.10
2019-03-04T19:17:52.243Z,5.17
2019-03-04T19:21:59.225Z,2.50
2019-03-04T19:26:06.710Z,2.50
2019-03-04T19:30:14.392Z,2.83
2019-03-04T19:34:21.860Z,2.50
2019-03-04T19:38:28.848Z,2.20
2019-03-04T19:42:35.972Z,2.10
2019-03-04T19:46:42.991Z,2.37
2019-03-04T19:50:50.290Z,2.00
2019-03-04T19:54:57.425Z,2.47
2019-03-04T19:59:04.635Z,2.40
2019-03-04T20:03:11.701Z,2.30
2019-03-04T20:07:18.742Z,2.57
2019-03-04T20:11:25.974Z,2.80
2019-03-04T20:15:33.072Z,2.40
2019-03-04T20:19:40.123Z,13.57
2019-03-04T20:23:47.085Z,2.67
2019-03-04T20:27:54.066Z,3.60
2019-03-04T20:32:01.173Z,3.23
2019-03-04T20:36:09.145Z,4.87
2019-03-04T20:40:18.084Z,4.37
2019-03-04T20:44:25.102Z,4.60
2019-03-04T20:48:32.113Z,5.83
2019-03-04T20:52:41.556Z,5.93
2019-03-04T20:56:47.659Z,6.60
2019-03-04T21:00:55.257Z,8.70
2019-03-04T21:05:02.092Z,6.73
2019-03-04T21:09:11.126Z,6.60
2019-03-04T21:13:35.147Z,6.67
2019-03-04T21:17:34.438Z,5.60
2019-03-04T21:21:41.521Z,5.77
2019-03-04T21:26:03.014Z,5.60
2019-03-04T21:31:00.422Z,5.07
2019-03-04T21:36:18.551Z,5.10
2019-03-04T21:40:36.449Z,6.83
2019-03-04T21:46:01.681Z,7.27
2019-03-04T21:50:12.418Z,4.80
2019-03-04T21:54:19.736Z,4.17
2019-03-04T21:58:28.253Z,4.50
2019-03-04T22:03:08.222Z,4.73
2019-03-04T22:07:16.634Z,5.50
2019-03-04T22:11:25.143Z,5.40
2019-03-04T22:15:32.109Z,5.57
2019-03-04T22:19:41.550Z,5.47
2019-03-04T22:23:48.566Z,5.80
2019-03-04T22:27:56.397Z,5.50
2019-03-04T22:32:03.406Z,6.40
2019-03-04T22:36:14.246Z,6.07
2019-03-04T22:40:22.014Z,6.33
2019-03-04T22:44:31.629Z,6.17
2019-03-04T22:48:42.151Z,6.47
2019-03-04T22:52:49.257Z,7.80
2019-03-04T22:56:57.894Z,6.30
2019-03-04T23:01:36.683Z,6.10
2019-03-04T23:05:43.582Z,5.53
2019-03-04T23:10:35.282Z,5.03
2019-03-04T23:14:53.460Z,4.63
2019-03-04T23:19:00.462Z,4.30
2019-03-04T23:23:07.327Z,3.80
2019-03-04T23:27:14.353Z,3.70
2019-03-04T23:31:21.409Z,3.90
2019-03-04T23:35:28.385Z,9.77
2019-03-04T23:39:35.271Z,3.80
2019-03-04T23:43:42.623Z,3.50
2019-03-04T23:47:49.524Z,3.30
2019-03-04T23:51:56.345Z,3.03
2019-03-04T23:56:03.202Z,3.20
